Time;durP1;ratioP1;P1;durP2;ratioP2;P2;SDS_P1;SDS_P2;PMS_P1;PMS_P2;Temp;Humidity;BMP_temperature;BMP_pressure;BME280_temperature;BME280_humidity;BME280_pressure;Samples;Min_cycle;Max_cycle;Signal;HPM_P1;HPM_P2
2023/06/10 00:02:08;;;;;;;13.02;5.75;;;18.90;99.90;;;;;;5101088;28;20273;-81
2023/06/10 00:04:36;;;;;;;14.15;5.50;;;18.90;99.90;;;;;;5074287;28;20183;-82
2023/06/10 00:07:08;;;;;;;11.13;5.20;;;18.90;99.90;;;;;;5099897;28;20241;-82
2023/06/10 00:09:37;;;;;;;13.55;5.53;;;18.80;99.90;;;;;;5092584;28;20158;-82
2023/06/10 00:12:07;;;;;;;9.93;5.60;;;18.80;99.90;;;;;;5092163;28;20207;-82
2023/06/10 00:14:35;;;;;;;11.57;5.50;;;18.80;99.90;;;;;;5108886;28;20174;-82
2023/06/10 00:17:00;;;;;;;11.60;5.80;;;18.70;99.90;;;;;;5104517;28;20186;-82
2023/06/10 00:19:29;;;;;;;11.30;5.63;;;18.70;99.90;;;;;;5090354;28;20189;-82
2023/06/10 00:21:56;;;;;;;12.90;6.15;;;18.60;99.90;;;;;;5099239;28;20188;-82
2023/06/10 00:24:22;;;;;;;10.88;5.97;;;18.50;99.90;;;;;;5111448;28;20196;-82
2023/06/10 00:26:48;;;;;;;10.82;5.93;;;18.50;99.90;;;;;;5099691;28;20224;-82
2023/06/10 00:29:14;;;;;;;12.68;5.70;;;18.50;99.90;;;;;;5093688;28;20181;-82
2023/06/10 00:31:40;;;;;;;12.27;6.40;;;18.40;99.90;;;;;;5090336;28;20213;-82
2023/06/10 00:34:07;;;;;;;16.00;5.72;;;18.40;99.90;;;;;;5100279;28;20182;-82
2023/06/10 00:36:33;;;;;;;15.63;6.18;;;18.40;99.90;;;;;;5110209;28;20217;-81
2023/06/10 00:38:59;;;;;;;10.82;6.40;;;18.30;99.90;;;;;;5096979;28;20519;-82
2023/06/10 00:41:27;;;;;;;10.82;5.43;;;18.30;99.90;;;;;;5101802;28;20174;-83
2023/06/10 00:43:53;;;;;;;12.52;6.53;;;18.20;99.90;;;;;;5091993;28;20205;-83
2023/06/10 00:46:20;;;;;;;16.48;6.60;;;18.20;99.90;;;;;;5099743;28;20236;-82
2023/06/10 00:48:46;;;;;;;12.77;5.57;;;18.20;99.90;;;;;;5110678;28;20177;-82
2023/06/10 00:51:12;;;;;;;13.75;6.75;;;18.20;99.90;;;;;;5097544;28;20205;-83
2023/06/10 00:53:40;;;;;;;9.57;6.03;;;18.10;99.90;;;;;;5090213;28;20633;-87
2023/06/10 00:56:06;;;;;;;9.40;6.05;;;18.10;99.90;;;;;;5091289;28;20272;-83
2023/06/10 00:58:32;;;;;;;14.30;6.47;;;18.00;99.90;;;;;;5093310;28;20205;-83
2023/06/10 01:00:58;;;;;;;11.05;6.22;;;17.90;99.90;;;;;;5094597;28;20213;-83
2023/06/10 01:03:27;;;;;;;10.45;6.70;;;17.90;99.90;;;;;;5097983;28;20234;-82
2023/06/10 01:06:19;;;;;;;12.80;6.22;;;17.90;99.90;;;;;;5097854;28;20245;-82
2023/06/10 01:08:46;;;;;;;11.52;6.22;;;17.80;99.90;;;;;;5080255;28;20205;-83
2023/06/10 01:11:21;;;;;;;13.95;6.10;;;17.70;99.90;;;;;;5094898;27;20345;-82
2023/06/10 01:13:51;;;;;;;14.18;6.32;;;17.70;99.90;;;;;;5077502;28;20182;-83
2023/06/10 01:16:19;;;;;;;12.38;6.22;;;17.60;99.90;;;;;;5101059;27;20647;-83
2023/06/10 01:18:44;;;;;;;11.32;6.15;;;17.60;99.90;;;;;;5077521;28;20344;-82
2023/06/10 01:21:29;;;;;;;9.63;5.82;;;17.60;99.90;;;;;;5077061;28;20596;-83
2023/06/10 01:23:56;;;;;;;12.23;5.93;;;17.50;99.90;;;;;;5097302;28;20609;-82
2023/06/10 01:26:29;;;;;;;10.05;6.07;;;17.50;99.90;;;;;;5101403;28;20354;-82
2023/06/10 01:29:04;;;;;;;11.60;6.07;;;17.50;99.90;;;;;;5107143;28;20271;-82
2023/06/10 01:31:37;;;;;;;12.23;6.97;;;17.50;99.90;;;;;;5094006;28;20579;-82
2023/06/10 01:34:08;;;;;;;10.52;6.10;;;17.40;99.90;;;;;;5093796;28;20193;-83
2023/06/10 01:36:36;;;;;;;12.98;6.40;;;17.40;99.90;;;;;;5080277;28;20182;-82
2023/06/10 01:39:04;;;;;;;13.43;5.70;;;17.30;99.90;;;;;;5095315;28;20174;-82
2023/06/10 01:41:31;;;;;;;11.45;6.07;;;17.30;99.90;;;;;;5081079;27;20185;-82
2023/06/10 01:43:57;;;;;;;10.40;6.32;;;17.30;99.90;;;;;;5114087;28;20181;-82
2023/06/10 01:46:23;;;;;;;11.18;6.10;;;17.20;99.90;;;;;;5113140;28;20216;-82
2023/06/10 01:48:49;;;;;;;10.18;5.80;;;17.20;99.90;;;;;;5080945;28;20574;-82
2023/06/10 01:51:15;;;;;;;11.55;6.10;;;17.10;99.90;;;;;;5093157;28;20516;-83
2023/06/10 01:53:41;;;;;;;9.38;5.72;;;17.10;99.90;;;;;;5076533;28;20186;-82
2023/06/10 01:56:06;;;;;;;12.95;5.90;;;17.10;99.90;;;;;;5076445;28;20512;-84
2023/06/10 01:58:32;;;;;;;12.70;6.00;;;17.00;99.90;;;;;;5113349;28;20177;-82
2023/06/10 02:00:58;;;;;;;12.23;6.32;;;17.00;99.90;;;;;;5079938;28;20181;-83
2023/06/10 02:03:24;;;;;;;10.82;5.55;;;17.00;99.90;;;;;;5076948;28;20208;-82
2023/06/10 02:05:50;;;;;;;9.25;5.55;;;17.00;99.90;;;;;;5093523;28;20657;-82
2023/06/10 02:08:16;;;;;;;11.15;5.70;;;16.90;99.90;;;;;;5110883;28;20192;-82
2023/06/10 02:10:41;;;;;;;9.90;5.53;;;16.90;99.90;;;;;;5112837;28;20277;-84
2023/06/10 02:13:07;;;;;;;9.82;5.60;;;16.90;99.90;;;;;;5083815;28;20185;-82
2023/06/10 02:15:33;;;;;;;17.83;5.93;;;16.80;99.90;;;;;;5079026;28;20225;-82
2023/06/10 02:18:00;;;;;;;11.55;5.97;;;16.80;99.90;;;;;;5092735;28;20186;-82
2023/06/10 02:20:26;;;;;;;10.35;5.53;;;16.80;99.90;;;;;;5093215;28;20223;-82
2023/06/10 02:22:53;;;;;;;12.70;5.93;;;16.70;99.90;;;;;;5099260;28;20236;-82
2023/06/10 02:25:18;;;;;;;9.23;4.80;;;16.70;99.90;;;;;;5114729;28;20200;-82
2023/06/10 02:27:44;;;;;;;11.63;5.63;;;16.70;99.90;;;;;;5100256;28;20572;-82
2023/06/10 02:30:11;;;;;;;10.27;5.65;;;16.70;99.90;;;;;;5092879;28;20276;-82
2023/06/10 02:32:37;;;;;;;12.68;5.78;;;16.70;99.90;;;;;;5105657;28;20730;-82
2023/06/10 02:35:03;;;;;;;15.23;6.10;;;16.70;99.90;;;;;;5113285;28;20235;-82
2023/06/10 02:37:30;;;;;;;14.48;5.57;;;16.60;99.90;;;;;;5061652;28;20266;-82
2023/06/10 02:39:56;;;;;;;17.45;5.57;;;16.60;99.90;;;;;;5092344;28;20185;-82
2023/06/10 02:42:23;;;;;;;11.82;5.80;;;16.60;99.90;;;;;;5090642;28;20178;-82
2023/06/10 02:44:49;;;;;;;12.68;5.90;;;16.50;99.90;;;;;;5092903;28;20178;-82
2023/06/10 02:47:23;;;;;;;12.40;5.68;;;16.50;99.90;;;;;;5092590;28;20211;-81
2023/06/10 02:49:49;;;;;;;12.13;5.60;;;16.40;99.90;;;;;;5092515;28;20194;-81
2023/06/10 02:52:15;;;;;;;13.30;5.85;;;16.40;99.90;;;;;;5064380;28;20186;-81
2023/06/10 02:54:42;;;;;;;14.20;6.00;;;16.40;99.90;;;;;;5094928;28;20218;-82
2023/06/10 02:57:10;;;;;;;12.02;5.68;;;16.40;99.90;;;;;;5089137;27;20615;-82
2023/06/10 02:59:36;;;;;;;13.13;6.10;;;16.30;99.90;;;;;;5079300;28;20643;-82
2023/06/10 03:02:02;;;;;;;12.63;5.70;;;16.30;99.90;;;;;;5112832;28;20181;-81
2023/06/10 03:04:31;;;;;;;12.18;5.60;;;16.20;99.90;;;;;;5079665;28;20173;-82
2023/06/10 03:07:03;;;;;;;8.25;5.13;;;16.20;99.90;;;;;;5066915;28;20214;-82
2023/06/10 03:09:32;;;;;;;15.90;5.85;;;16.20;99.90;;;;;;5108323;28;20193;-81
2023/06/10 03:12:00;;;;;;;12.82;5.65;;;16.20;99.90;;;;;;5105929;27;20192;-82
2023/06/10 03:14:29;;;;;;;11.75;5.63;;;16.20;99.90;;;;;;5128526;27;20597;-82
2023/06/10 03:16:55;;;;;;;13.52;6.25;;;16.20;99.90;;;;;;5094798;28;20242;-82
2023/06/10 03:19:23;;;;;;;12.50;6.05;;;16.10;99.90;;;;;;5079104;28;20635;-82
2023/06/10 03:22:11;;;;;;;16.15;6.20;;;16.10;99.90;;;;;;5073663;28;20196;-82
2023/06/10 03:24:41;;;;;;;11.98;6.32;;;16.00;99.90;;;;;;5068294;28;20185;-82
2023/06/10 03:27:10;;;;;;;9.13;5.57;;;16.00;99.90;;;;;;5091738;28;20229;-82
2023/06/10 03:29:37;;;;;;;16.38;6.45;;;16.00;99.90;;;;;;5093223;28;20178;-81
2023/06/10 03:32:06;;;;;;;12.75;6.20;;;16.00;99.90;;;;;;5093782;28;20194;-81
2023/06/10 03:34:33;;;;;;;10.90;6.28;;;16.00;99.90;;;;;;5074753;28;20595;-84
2023/06/10 03:36:59;;;;;;;16.38;6.65;;;16.00;99.90;;;;;;5080876;28;20186;-82
2023/06/10 03:39:28;;;;;;;13.07;6.43;;;16.00;99.90;;;;;;5094858;28;20181;-82
2023/06/10 03:41:56;;;;;;;11.10;6.38;;;15.90;99.90;;;;;;5111466;28;20629;-82
2023/06/10 03:44:24;;;;;;;17.40;7.10;;;15.90;99.90;;;;;;5094709;28;20181;-82
2023/06/10 03:46:50;;;;;;;16.10;6.90;;;15.90;99.90;;;;;;5077559;28;20680;-82
2023/06/10 03:49:16;;;;;;;13.73;6.93;;;15.90;99.90;;;;;;5094628;28;20237;-82
2023/06/10 03:51:43;;;;;;;12.30;7.18;;;15.90;99.90;;;;;;5090315;28;20339;-82
2023/06/10 03:54:10;;;;;;;15.35;7.18;;;15.90;99.90;;;;;;5074390;28;20615;-82
2023/06/10 03:56:36;;;;;;;13.13;7.13;;;15.90;99.90;;;;;;5063754;28;20185;-82
2023/06/10 03:59:01;;;;;;;13.75;6.65;;;15.90;99.90;;;;;;5091055;28;20178;-82
2023/06/10 04:01:28;;;;;;;13.85;7.60;;;15.80;99.90;;;;;;5074309;28;20204;-82
2023/06/10 04:03:55;;;;;;;16.02;7.53;;;15.80;99.90;;;;;;5084194;28;20288;-82
2023/06/10 04:06:22;;;;;;;13.57;7.55;;;15.80;99.90;;;;;;5100634;28;20202;-82
2023/06/10 04:08:48;;;;;;;23.08;8.25;;;15.80;99.90;;;;;;5098258;28;20261;-82
2023/06/10 04:11:14;;;;;;;14.10;8.45;;;15.80;99.90;;;;;;5094155;28;20204;-82
2023/06/10 04:13:40;;;;;;;35.35;9.15;;;15.80;99.90;;;;;;5073825;28;20216;-81
2023/06/10 04:16:06;;;;;;;19.25;8.45;;;15.70;99.90;;;;;;5090497;28;20223;-82
2023/06/10 04:18:32;;;;;;;17.73;8.27;;;15.70;99.90;;;;;;5103311;28;20185;-82
2023/06/10 04:21:04;;;;;;;16.65;8.38;;;15.70;99.90;;;;;;5078724;28;20189;-83
2023/06/10 04:23:31;;;;;;;18.38;8.43;;;15.70;99.90;;;;;;5092560;28;20189;-82
2023/06/10 04:25:59;;;;;;;17.15;8.35;;;15.70;99.90;;;;;;5090457;28;20615;-82
2023/06/10 04:28:25;;;;;;;15.52;8.55;;;15.70;99.90;;;;;;5088244;28;20237;-82
2023/06/10 04:30:51;;;;;;;18.10;9.25;;;15.70;99.90;;;;;;5097594;28;20241;-82
2023/06/10 04:33:17;;;;;;;13.95;8.38;;;15.70;99.90;;;;;;5109780;28;20231;-82
2023/06/10 04:35:42;;;;;;;21.20;9.05;;;15.70;99.90;;;;;;5111237;28;20181;-82
2023/06/10 04:38:12;;;;;;;17.08;8.60;;;15.70;99.90;;;;;;5094619;28;20216;-82
2023/06/10 04:40:38;;;;;;;18.90;9.07;;;15.70;99.90;;;;;;5077445;28;20273;-83
2023/06/10 04:43:04;;;;;;;19.20;8.80;;;15.70;99.90;;;;;;5110562;28;20186;-82
2023/06/10 04:45:31;;;;;;;20.85;9.35;;;15.70;99.90;;;;;;5110834;28;20269;-82
2023/06/10 04:47:58;;;;;;;23.00;9.20;;;15.70;99.90;;;;;;5079878;28;20221;-82
2023/06/10 04:50:26;;;;;;;17.75;8.77;;;15.70;99.90;;;;;;5090583;28;20275;-82
2023/06/10 04:52:52;;;;;;;20.80;9.07;;;15.80;99.90;;;;;;5090576;28;20182;-84
2023/06/10 04:55:18;;;;;;;22.88;8.75;;;15.80;99.90;;;;;;5094107;28;20194;-85
2023/06/10 04:57:44;;;;;;;20.60;8.55;;;15.80;99.90;;;;;;5087000;28;20189;-84
2023/06/10 05:00:10;;;;;;;15.00;8.73;;;15.80;99.90;;;;;;5097462;28;20190;-84
2023/06/10 05:02:36;;;;;;;19.65;9.10;;;15.80;99.90;;;;;;5090044;28;20209;-84
2023/06/10 05:05:01;;;;;;;20.02;9.27;;;15.80;99.90;;;;;;5073601;28;20630;-84
2023/06/10 05:07:27;;;;;;;21.77;9.40;;;15.80;99.90;;;;;;5100118;28;20232;-84
2023/06/10 05:09:53;;;;;;;20.55;9.43;;;15.80;99.90;;;;;;5101246;28;20209;-83
2023/06/10 05:12:18;;;;;;;19.73;8.93;;;15.80;99.90;;;;;;5109875;28;20601;-82
2023/06/10 05:14:44;;;;;;;18.25;9.32;;;15.80;99.90;;;;;;5110619;28;20182;-83
2023/06/10 05:17:10;;;;;;;18.88;9.57;;;15.90;99.90;;;;;;5087036;28;20202;-83
2023/06/10 05:19:37;;;;;;;18.25;8.55;;;15.90;99.90;;;;;;5091260;28;20239;-82
2023/06/10 05:22:03;;;;;;;15.88;9.30;;;15.90;99.90;;;;;;5089642;28;20189;-83
2023/06/10 05:24:29;;;;;;;18.15;8.43;;;15.90;99.90;;;;;;5091407;28;20178;-83
2023/06/10 05:26:54;;;;;;;21.13;9.02;;;15.90;99.90;;;;;;5089369;28;20251;-84
2023/06/10 05:29:20;;;;;;;19.77;9.27;;;16.00;99.90;;;;;;5089839;28;20263;-83
2023/06/10 05:31:46;;;;;;;19.00;8.68;;;16.00;99.90;;;;;;5103000;28;20213;-83
2023/06/10 05:34:12;;;;;;;18.70;9.45;;;16.10;99.90;;;;;;5104061;28;20188;-83
2023/06/10 05:36:37;;;;;;;17.83;8.82;;;16.00;99.90;;;;;;5093094;28;20191;-84
2023/06/10 05:39:04;;;;;;;14.35;8.55;;;16.10;99.90;;;;;;5110061;28;20196;-83
2023/06/10 05:41:30;;;;;;;21.48;7.75;;;16.10;99.90;;;;;;5091750;28;20181;-83
2023/06/10 05:43:56;;;;;;;17.20;7.90;;;16.10;99.90;;;;;;5078791;28;20495;-85
2023/06/10 05:46:21;;;;;;;14.18;7.90;;;16.20;99.90;;;;;;5098284;28;20197;-85
2023/06/10 05:48:47;;;;;;;15.63;8.10;;;16.20;99.90;;;;;;5083028;28;20194;-82
2023/06/10 05:51:13;;;;;;;16.98;7.88;;;16.20;99.90;;;;;;5100883;28;20185;-81
2023/06/10 05:53:39;;;;;;;17.92;8.00;;;16.30;99.90;;;;;;5091805;28;20190;-80
2023/06/10 05:56:05;;;;;;;17.30;8.45;;;16.30;99.90;;;;;;5098359;28;20196;-82
2023/06/10 05:58:31;;;;;;;18.73;8.38;;;16.30;99.90;;;;;;5092992;28;20170;-80
2023/06/10 06:00:56;;;;;;;16.98;8.35;;;16.40;99.90;;;;;;5108982;28;20646;-81
2023/06/10 06:03:22;;;;;;;19.35;8.50;;;16.40;99.90;;;;;;5094637;28;20265;-80
2023/06/10 06:05:48;;;;;;;18.98;8.52;;;16.50;99.90;;;;;;5093693;27;20196;-81
2023/06/10 06:08:17;;;;;;;16.30;7.88;;;16.50;99.90;;;;;;5078132;28;20205;-81
2023/06/10 06:10:43;;;;;;;19.45;8.35;;;16.50;99.90;;;;;;5078704;28;20178;-80
2023/06/10 06:13:08;;;;;;;16.88;8.05;;;16.60;99.90;;;;;;5110111;28;20238;-81
2023/06/10 06:15:34;;;;;;;16.92;7.60;;;16.60;99.90;;;;;;5112858;28;20193;-81
2023/06/10 06:18:00;;;;;;;16.88;7.40;;;16.70;99.90;;;;;;5112208;28;20206;-81
2023/06/10 06:20:26;;;;;;;18.48;7.68;;;16.70;99.90;;;;;;5111388;28;20196;-81
2023/06/10 06:22:51;;;;;;;12.98;7.55;;;16.80;99.90;;;;;;5103132;28;20667;-81
2023/06/10 06:25:17;;;;;;;17.67;8.05;;;16.90;99.90;;;;;;5102587;28;20201;-83
2023/06/10 06:27:43;;;;;;;14.65;7.50;;;17.00;99.90;;;;;;5095835;28;20695;-84
2023/06/10 06:30:09;;;;;;;14.98;7.55;;;17.00;99.90;;;;;;5095227;28;20205;-83
2023/06/10 06:32:35;;;;;;;17.17;7.30;;;17.00;99.90;;;;;;5095031;28;20190;-85
2023/06/10 06:35:01;;;;;;;15.05;7.45;;;17.10;99.90;;;;;;5103799;28;20188;-84
2023/06/10 06:37:26;;;;;;;12.45;7.28;;;17.10;99.90;;;;;;5094434;28;20234;-84
2023/06/10 06:40:06;;;;;;;16.08;7.45;;;17.20;99.90;;;;;;5109364;27;20275;-84
2023/06/10 06:42:32;;;;;;;15.35;7.40;;;17.30;99.90;;;;;;5099692;28;20183;-83
2023/06/10 06:45:03;;;;;;;15.00;7.40;;;17.40;99.90;;;;;;5097987;28;20601;-85
2023/06/10 06:47:29;;;;;;;13.82;7.68;;;17.50;99.90;;;;;;5111004;28;20236;-83
2023/06/10 06:49:54;;;;;;;13.73;7.40;;;17.50;99.90;;;;;;5101178;28;20213;-84
2023/06/10 06:52:22;;;;;;;16.92;8.50;;;17.50;99.90;;;;;;5092872;28;20201;-81
2023/06/10 06:54:48;;;;;;;17.65;7.72;;;17.60;99.90;;;;;;5105177;28;20227;-84
2023/06/10 06:57:13;;;;;;;16.08;7.28;;;17.60;99.90;;;;;;5076708;28;20205;-84
2023/06/10 06:59:39;;;;;;;17.70;7.63;;;17.70;99.90;;;;;;5109424;28;20632;-84
2023/06/10 07:02:05;;;;;;;13.70;7.35;;;17.80;99.90;;;;;;5109660;27;20197;-84
2023/06/10 07:04:31;;;;;;;12.27;6.97;;;17.80;99.90;;;;;;5093139;28;20254;-83
2023/06/10 07:06:57;;;;;;;14.05;6.82;;;17.90;99.90;;;;;;5107950;28;20669;-87
2023/06/10 07:09:23;;;;;;;14.70;6.75;;;17.90;99.90;;;;;;5084572;28;20189;-84
2023/06/10 07:11:48;;;;;;;14.68;6.75;;;18.00;99.90;;;;;;5080060;28;20250;-85
2023/06/10 07:14:14;;;;;;;12.98;6.30;;;18.10;99.90;;;;;;5096041;28;20188;-82
2023/06/10 07:16:40;;;;;;;14.50;6.75;;;18.20;99.90;;;;;;5106283;28;20193;-85
2023/06/10 07:19:07;;;;;;;15.52;6.63;;;18.30;99.90;;;;;;5095907;28;20182;-83
2023/06/10 07:21:33;;;;;;;15.48;6.40;;;18.40;99.90;;;;;;5113601;27;20510;-82
2023/06/10 07:23:59;;;;;;;13.25;6.68;;;18.50;99.90;;;;;;5094965;28;20310;-82
2023/06/10 07:26:25;;;;;;;11.95;5.97;;;18.60;99.90;;;;;;5112334;28;20634;-82
2023/06/10 07:28:51;;;;;;;13.57;6.22;;;18.60;99.90;;;;;;5112745;28;20257;-84
2023/06/10 07:31:17;;;;;;;14.77;6.57;;;18.60;99.90;;;;;;5097672;27;20176;-81
2023/06/10 07:33:43;;;;;;;11.45;6.32;;;18.70;99.90;;;;;;5101342;28;20260;-82
2023/06/10 07:36:09;;;;;;;10.80;5.75;;;18.80;99.90;;;;;;5091669;28;20612;-81
2023/06/10 07:38:36;;;;;;;12.60;5.85;;;18.80;99.90;;;;;;5106666;28;20272;-81
2023/06/10 07:41:01;;;;;;;15.23;6.28;;;18.90;99.90;;;;;;5110535;27;20196;-81
2023/06/10 07:43:27;;;;;;;11.10;5.90;;;19.00;99.90;;;;;;5108506;28;20257;-82
2023/06/10 07:45:53;;;;;;;12.70;5.40;;;19.10;99.90;;;;;;5077287;28;20579;-82
2023/06/10 07:48:19;;;;;;;12.73;5.55;;;19.20;99.90;;;;;;5092688;28;20269;-85
2023/06/10 07:50:45;;;;;;;10.70;5.45;;;19.30;99.90;;;;;;5090672;28;20178;-82
2023/06/10 07:53:10;;;;;;;12.13;5.82;;;19.40;99.90;;;;;;5077676;28;20706;-81
2023/06/10 07:55:36;;;;;;;15.77;5.68;;;19.60;99.90;;;;;;5091880;28;20269;-81
2023/06/10 07:58:02;;;;;;;13.07;5.45;;;19.60;99.90;;;;;;5106608;28;20224;-83
2023/06/10 08:00:28;;;;;;;10.85;5.43;;;19.70;99.90;;;;;;5090722;28;20201;-82
2023/06/10 08:02:53;;;;;;;9.35;5.40;;;19.70;99.90;;;;;;5073914;28;20189;-81
2023/06/10 08:05:20;;;;;;;15.20;5.53;;;19.70;99.90;;;;;;5092809;28;20185;-81
2023/06/10 08:07:46;;;;;;;15.55;6.13;;;19.70;99.90;;;;;;5104796;28;20219;-82
2023/06/10 08:10:12;;;;;;;14.10;5.75;;;19.80;99.90;;;;;;5102243;27;20276;-82
2023/06/10 08:12:38;;;;;;;10.43;5.47;;;19.80;99.90;;;;;;5108093;28;20260;-82
2023/06/10 08:15:04;;;;;;;11.73;5.68;;;19.90;99.90;;;;;;5099471;27;20192;-82
2023/06/10 08:17:31;;;;;;;12.70;5.55;;;19.90;99.90;;;;;;5098261;27;20178;-83
2023/06/10 08:19:56;;;;;;;11.45;5.63;;;20.00;99.90;;;;;;5057070;28;20186;-84
2023/06/10 08:22:22;;;;;;;11.00;5.07;;;20.10;99.90;;;;;;5096588;28;20225;-82
2023/06/10 08:24:48;;;;;;;11.13;5.57;;;20.20;99.90;;;;;;5081744;28;20498;-87
2023/06/10 08:27:14;;;;;;;13.57;5.43;;;20.30;99.90;;;;;;5075851;28;20714;-83
2023/06/10 08:29:41;;;;;;;10.75;5.68;;;20.30;99.90;;;;;;5092396;28;20605;-83
2023/06/10 08:32:07;;;;;;;12.05;5.35;;;20.40;99.90;;;;;;5072798;28;20189;-84
2023/06/10 08:34:36;;;;;;;14.50;5.80;;;20.50;99.90;;;;;;5108819;28;20181;-84
2023/06/10 08:37:03;;;;;;;10.93;5.47;;;20.50;99.90;;;;;;5109335;28;20227;-84
2023/06/10 08:39:32;;;;;;;13.10;5.18;;;20.60;99.90;;;;;;5074311;28;20276;-82
2023/06/10 08:42:00;;;;;;;12.30;5.50;;;20.70;99.90;;;;;;5073737;28;20622;-83
2023/06/10 08:44:28;;;;;;;15.73;5.18;;;20.80;99.90;;;;;;5092094;28;20205;-83
2023/06/10 08:46:58;;;;;;;10.07;5.03;;;20.90;99.90;;;;;;5074860;28;20209;-83
2023/06/10 08:49:27;;;;;;;11.48;5.18;;;21.00;99.90;;;;;;5090788;28;20606;-83
2023/06/10 08:51:58;;;;;;;9.50;4.93;;;21.10;99.90;;;;;;5075510;28;20186;-83
2023/06/10 08:54:27;;;;;;;12.52;6.10;;;21.20;99.90;;;;;;5093047;28;20178;-84
2023/06/10 08:56:55;;;;;;;10.18;5.53;;;21.30;99.90;;;;;;5073765;28;20185;-83
2023/06/10 08:59:21;;;;;;;10.18;5.13;;;21.50;99.90;;;;;;5098867;28;20169;-84
2023/06/10 09:01:48;;;;;;;13.25;5.13;;;21.60;99.90;;;;;;5110035;28;20223;-84
2023/06/10 09:04:14;;;;;;;11.20;4.95;;;21.70;99.90;;;;;;5111410;28;20212;-84
2023/06/10 09:06:40;;;;;;;18.80;5.15;;;21.80;99.90;;;;;;5060638;28;20277;-84
2023/06/10 09:09:07;;;;;;;13.50;5.45;;;21.80;99.90;;;;;;5088196;28;20288;-84
2023/06/10 09:11:33;;;;;;;14.43;4.85;;;21.90;99.90;;;;;;5072002;28;20656;-86
2023/06/10 09:13:59;;;;;;;12.30;5.00;;;22.00;99.90;;;;;;5090553;28;20670;-84
2023/06/10 09:16:25;;;;;;;9.70;4.88;;;22.10;99.90;;;;;;5094308;28;20284;-84
2023/06/10 09:18:54;;;;;;;15.95;5.60;;;22.10;99.90;;;;;;5074177;28;20265;-83
2023/06/10 09:21:24;;;;;;;11.70;4.85;;;22.30;99.90;;;;;;5082598;28;20182;-81
2023/06/10 09:23:51;;;;;;;22.33;5.07;;;22.30;99.90;;;;;;5092594;28;20182;-83
2023/06/10 09:26:18;;;;;;;9.27;5.15;;;22.40;99.90;;;;;;5095071;28;20214;-82
2023/06/10 09:28:50;;;;;;;11.13;4.78;;;22.40;99.90;;;;;;5089344;28;20555;-82
2023/06/10 09:31:18;;;;;;;12.35;5.13;;;22.50;99.90;;;;;;5116163;28;20166;-81
2023/06/10 09:33:45;;;;;;;9.88;5.10;;;22.50;99.90;;;;;;5103192;28;20649;-83
2023/06/10 09:36:11;;;;;;;14.32;5.28;;;22.50;99.90;;;;;;5095798;27;20253;-83
2023/06/10 09:38:37;;;;;;;16.73;6.30;;;22.60;99.90;;;;;;5103767;28;20206;-81
2023/06/10 09:41:04;;;;;;;16.67;6.03;;;22.70;99.90;;;;;;5075968;28;20276;-83
2023/06/10 09:43:43;;;;;;;12.48;5.47;;;22.80;99.90;;;;;;5094803;28;20284;-83
2023/06/10 09:46:19;;;;;;;21.15;6.07;;;22.90;99.90;;;;;;5095071;28;20296;-83
2023/06/10 09:48:48;;;;;;;17.55;7.10;;;22.90;99.90;;;;;;5108280;28;20182;-82
2023/06/10 09:51:19;;;;;;;15.77;5.13;;;22.90;99.90;;;;;;5077803;28;20239;-82
2023/06/10 09:53:50;;;;;;;11.95;5.40;;;23.00;99.90;;;;;;5094867;28;20253;-82
2023/06/10 09:56:16;;;;;;;11.48;5.13;;;23.10;99.90;;;;;;5097465;27;20710;-83
2023/06/10 09:58:43;;;;;;;14.95;5.15;;;23.20;99.90;;;;;;5096801;28;20194;-83
2023/06/10 10:01:10;;;;;;;12.05;5.32;;;23.30;99.90;;;;;;5096577;28;20207;-82
2023/06/10 10:03:52;;;;;;;9.43;5.43;;;23.30;99.90;;;;;;5102404;28;20174;-82
2023/06/10 10:06:20;;;;;;;8.77;4.68;;;23.40;99.90;;;;;;5093674;27;20240;-83
2023/06/10 10:08:48;;;;;;;11.63;5.40;;;23.40;99.90;;;;;;5093641;28;20296;-84
2023/06/10 10:11:17;;;;;;;15.43;5.38;;;23.50;99.60;;;;;;5093041;28;20185;-83
2023/06/10 10:13:47;;;;;;;17.38;5.68;;;23.60;99.40;;;;;;5096841;28;20277;-83
2023/06/10 10:16:35;;;;;;;10.88;4.82;;;23.70;99.20;;;;;;5110852;28;20215;-82
2023/06/10 10:19:15;;;;;;;14.63;5.60;;;23.70;98.80;;;;;;5099185;28;20173;-84
2023/06/10 10:21:54;;;;;;;16.73;5.05;;;23.80;98.40;;;;;;5087312;27;20169;-83
2023/06/10 10:24:30;;;;;;;20.38;5.45;;;23.80;98.20;;;;;;5128457;27;20173;-84
2023/06/10 10:27:01;;;;;;;14.15;5.50;;;23.80;97.90;;;;;;5080861;28;20205;-83
2023/06/10 10:29:35;;;;;;;13.73;6.03;;;23.80;97.40;;;;;;5094763;28;20248;-83
2023/06/10 10:32:03;;;;;;;18.88;6.38;;;23.80;97.50;;;;;;5092775;28;20176;-82
2023/06/10 10:34:59;;;;;;;15.43;7.85;;;23.80;97.10;;;;;;5107210;28;20296;-83
2023/06/10 10:37:26;;;;;;;11.85;5.80;;;23.80;97.00;;;;;;5110356;28;20256;-81
2023/06/10 10:39:52;;;;;;;15.60;5.50;;;24.00;96.90;;;;;;5114837;28;20176;-81
2023/06/10 10:42:19;;;;;;;18.23;5.82;;;24.20;96.10;;;;;;5113127;28;20204;-81
2023/06/10 10:44:46;;;;;;;18.25;5.53;;;24.30;95.50;;;;;;5103268;28;20180;-82
2023/06/10 10:47:15;;;;;;;13.00;5.15;;;24.50;94.70;;;;;;5092852;28;20225;-81
2023/06/10 10:49:44;;;;;;;12.18;5.82;;;24.60;94.00;;;;;;5101335;28;20166;-81
2023/06/10 10:52:13;;;;;;;11.43;5.30;;;24.80;94.00;;;;;;5106813;28;20181;-81
2023/06/10 10:54:45;;;;;;;16.08;5.80;;;24.90;94.10;;;;;;5104914;28;20177;-80
2023/06/10 10:57:16;;;;;;;15.82;6.18;;;25.00;94.00;;;;;;5112192;28;20177;-80
2023/06/10 10:59:55;;;;;;;20.58;5.70;;;25.10;93.40;;;;;;5111769;28;20177;-81
2023/06/10 11:02:33;;;;;;;13.18;6.18;;;25.10;93.30;;;;;;5098369;28;20257;-82
2023/06/10 11:05:00;;;;;;;22.08;6.57;;;25.20;92.80;;;;;;5114016;28;20213;-81
2023/06/10 11:07:26;;;;;;;18.45;6.00;;;25.20;92.70;;;;;;5111611;28;20669;-80
2023/06/10 11:10:01;;;;;;;17.50;8.73;;;25.40;92.50;;;;;;5104373;28;20174;-80
2023/06/10 11:12:46;;;;;;;9.98;4.97;;;25.50;92.30;;;;;;5093408;28;20177;-79
2023/06/10 11:15:13;;;;;;;13.70;4.85;;;25.60;90.70;;;;;;5092581;28;20201;-80
2023/06/10 11:18:08;;;;;;;8.93;4.95;;;25.60;90.60;;;;;;5108134;28;20239;-80
2023/06/10 11:20:49;;;;;;;9.43;5.38;;;25.60;90.50;;;;;;5102244;27;20252;-80
2023/06/10 11:23:27;;;;;;;15.40;5.28;;;25.70;90.30;;;;;;5112355;28;20624;-80
2023/06/10 11:26:12;;;;;;;11.60;4.40;;;25.80;90.30;;;;;;5112465;28;20233;-80
2023/06/10 11:28:38;;;;;;;22.42;5.25;;;25.90;87.60;;;;;;5097868;28;20274;-80
2023/06/10 11:31:04;;;;;;;10.77;5.35;;;26.00;87.10;;;;;;5094406;28;20177;-81
2023/06/10 11:33:31;;;;;;;8.65;4.55;;;26.10;86.30;;;;;;5110889;28;20281;-81
2023/06/10 11:35:58;;;;;;;9.65;5.25;;;26.10;85.10;;;;;;5095253;28;20279;-81
2023/06/10 11:38:24;;;;;;;7.45;4.72;;;26.20;84.20;;;;;;5111962;28;20185;-80
2023/06/10 11:40:51;;;;;;;11.88;4.35;;;26.30;82.40;;;;;;5076152;28;20651;-80
2023/06/10 11:43:17;;;;;;;9.32;4.68;;;26.30;80.60;;;;;;5095878;28;20181;-79
2023/06/10 11:45:44;;;;;;;8.63;4.22;;;26.20;77.90;;;;;;5093109;28;20185;-80
2023/06/10 11:48:10;;;;;;;8.23;4.40;;;26.20;77.60;;;;;;5091233;28;20317;-80
2023/06/10 11:50:37;;;;;;;9.13;4.68;;;26.20;77.70;;;;;;5074353;28;20182;-81
2023/06/10 11:53:03;;;;;;;7.13;4.43;;;26.30;78.50;;;;;;5092259;28;20174;-80
2023/06/10 11:55:43;;;;;;;11.73;5.13;;;26.40;80.40;;;;;;5106939;28;20192;-80
2023/06/10 11:58:21;;;;;;;10.80;4.75;;;26.40;82.20;;;;;;5094792;28;20185;-81
2023/06/10 12:00:53;;;;;;;9.52;4.43;;;26.60;83.80;;;;;;5094872;28;20536;-81
2023/06/10 12:03:20;;;;;;;8.52;5.03;;;26.70;84.80;;;;;;5103186;28;20205;-82
2023/06/10 12:06:04;;;;;;;9.13;4.60;;;26.70;85.20;;;;;;5074108;28;20517;-82
2023/06/10 12:08:31;;;;;;;9.25;4.78;;;26.80;83.30;;;;;;5092329;28;20193;-81
2023/06/10 12:10:57;;;;;;;11.45;5.28;;;26.80;83.70;;;;;;5091936;28;20260;-81
2023/06/10 12:13:27;;;;;;;14.30;4.88;;;26.70;82.90;;;;;;5073886;28;20181;-81
2023/06/10 12:15:53;;;;;;;7.68;4.30;;;26.70;83.60;;;;;;5095627;28;20579;-81
2023/06/10 12:18:20;;;;;;;7.18;4.20;;;26.70;83.80;;;;;;5107949;28;20181;-81
2023/06/10 12:20:46;;;;;;;9.63;4.40;;;26.70;83.20;;;;;;5092159;28;20205;-80
2023/06/10 12:23:12;;;;;;;8.10;4.30;;;26.80;83.40;;;;;;5092106;28;20188;-80
2023/06/10 12:25:39;;;;;;;8.80;4.25;;;26.80;83.30;;;;;;5090911;28;20177;-81
2023/06/10 12:28:06;;;;;;;10.40;4.45;;;26.90;82.90;;;;;;5073106;28;20608;-81
2023/06/10 12:30:32;;;;;;;11.35;5.00;;;26.90;82.00;;;;;;5090868;28;20162;-81
2023/06/10 12:32:58;;;;;;;10.77;4.88;;;26.90;81.70;;;;;;5069719;28;20177;-82
2023/06/10 12:35:27;;;;;;;9.45;4.30;;;26.90;81.80;;;;;;5105307;28;20190;-81
2023/06/10 12:37:56;;;;;;;11.60;4.40;;;26.90;81.20;;;;;;5091523;28;20194;-82
2023/06/10 12:40:31;;;;;;;10.68;4.47;;;26.90;81.40;;;;;;5108752;28;20284;-81
2023/06/10 12:42:57;;;;;;;6.90;4.45;;;27.00;82.70;;;;;;5110834;28;20188;-82